createdAt,value
2023-01-09T00:01:13.258Z,6.75
2023-01-09T00:03:39.767Z,6.03
2023-01-09T00:06:07.362Z,5.98
2023-01-09T00:08:33.785Z,6.38
2023-01-09T00:11:00.288Z,6.37
2023-01-09T00:13:26.695Z,7.45
2023-01-09T00:15:53.096Z,7.49
2023-01-09T00:18:19.568Z,7.67
2023-01-09T00:20:46.062Z,6.99
2023-01-09T00:23:13.183Z,6.78
2023-01-09T00:25:42.428Z,6.71
2023-01-09T00:28:09.177Z,6.77
2023-01-09T00:30:35.722Z,7.18
2023-01-09T00:33:02.320Z,7.00
2023-01-09T00:35:28.960Z,6.83
2023-01-09T00:37:55.408Z,6.36
2023-01-09T00:40:22.584Z,5.95
2023-01-09T00:42:55.073Z,5.87
2023-01-09T00:45:28.199Z,5.68
2023-01-09T00:47:57.930Z,5.57
2023-01-09T00:50:27.285Z,5.51
2023-01-09T00:52:56.561Z,5.47
2023-01-09T00:55:24.125Z,5.30
2023-01-09T00:57:50.616Z,5.19
2023-01-09T01:00:18.012Z,5.21
2023-01-09T01:02:45.042Z,5.10
2023-01-09T01:05:29.641Z,5.13
2023-01-09T01:07:56.126Z,5.20
2023-01-09T01:10:25.127Z,5.20
2023-01-09T01:12:51.956Z,5.22
2023-01-09T01:15:20.847Z,5.23
2023-01-09T01:17:48.001Z,5.40
2023-01-09T01:20:18.481Z,5.55
2023-01-09T01:22:45.083Z,5.37
2023-01-09T01:25:13.708Z,5.30
2023-01-09T01:27:41.200Z,5.16
2023-01-09T01:30:10.093Z,5.20
2023-01-09T01:32:36.963Z,5.12
2023-01-09T01:35:04.119Z,5.20
2023-01-09T01:37:31.140Z,5.16
2023-01-09T01:39:57.681Z,5.13
2023-01-09T01:42:24.605Z,5.20
2023-01-09T01:45:05.836Z,5.21
2023-01-09T01:47:40.124Z,5.23
2023-01-09T01:50:12.591Z,5.22
2023-01-09T01:52:39.406Z,5.24
2023-01-09T01:55:08.975Z,5.10
2023-01-09T01:57:37.440Z,5.14
2023-01-09T02:00:06.521Z,5.05
2023-01-09T02:02:33.224Z,4.96
2023-01-09T02:05:04.640Z,4.96
2023-01-09T02:07:31.123Z,4.94
2023-01-09T02:09:58.412Z,5.09
2023-01-09T02:12:27.121Z,5.09
2023-01-09T02:14:58.587Z,5.16
2023-01-09T02:17:45.711Z,5.22
2023-01-09T02:20:44.757Z,5.26
2023-01-09T02:23:53.779Z,5.20
2023-01-09T02:26:52.233Z,5.16
2023-01-09T02:29:55.050Z,5.20
2023-01-09T02:32:35.654Z,5.18
2023-01-09T02:35:13.180Z,5.08
2023-01-09T02:37:48.500Z,5.14
2023-01-09T02:40:22.297Z,5.19
2023-01-09T02:42:49.599Z,5.18
2023-01-09T02:45:16.153Z,5.14
2023-01-09T02:47:45.454Z,5.07
2023-01-09T02:50:15.766Z,5.15
2023-01-09T02:52:59.502Z,5.09
2023-01-09T02:55:41.110Z,5.04
2023-01-09T02:58:13.388Z,5.04
2023-01-09T03:00:50.562Z,5.04
2023-01-09T03:03:26.741Z,5.06
2023-01-09T03:05:58.408Z,5.19
2023-01-09T03:08:31.794Z,5.12
2023-01-09T03:11:01.394Z,5.08
2023-01-09T03:13:33.484Z,5.12
2023-01-09T03:16:04.914Z,5.09
2023-01-09T03:18:34.489Z,5.06
2023-01-09T03:21:02.554Z,4.97
2023-01-09T03:23:45.274Z,4.99
2023-01-09T03:26:11.770Z,5.06
2023-01-09T03:28:38.290Z,5.01
2023-01-09T03:31:04.968Z,4.94
2023-01-09T03:33:34.046Z,4.99
2023-01-09T03:36:00.524Z,4.99
2023-01-09T03:38:27.014Z,4.96
2023-01-09T03:40:53.578Z,4.97
2023-01-09T03:43:19.969Z,4.92
2023-01-09T03:45:46.468Z,4.84
2023-01-09T03:48:12.937Z,4.79
2023-01-09T03:50:41.787Z,4.77
2023-01-09T03:53:08.336Z,4.79
2023-01-09T03:55:34.778Z,4.73
2023-01-09T03:58:01.216Z,4.74
2023-01-09T04:00:27.786Z,4.79
2023-01-09T04:02:54.203Z,4.79
2023-01-09T04:05:20.660Z,5.01
2023-01-09T04:07:47.917Z,5.20
2023-01-09T04:10:14.380Z,5.39
2023-01-09T04:12:40.774Z,5.60
2023-01-09T04:15:07.865Z,5.74
2023-01-09T04:17:34.303Z,5.88
2023-01-09T04:20:00.797Z,6.01
2023-01-09T04:22:27.253Z,6.06
2023-01-09T04:24:54.345Z,6.20
2023-01-09T04:27:22.467Z,6.20
2023-01-09T04:29:49.222Z,6.22
2023-01-09T04:32:15.667Z,6.34
2023-01-09T04:34:42.193Z,6.47
2023-01-09T04:37:08.892Z,6.54
2023-01-09T04:39:35.524Z,6.54
2023-01-09T04:42:02.712Z,6.53
2023-01-09T04:44:29.361Z,6.58
2023-01-09T04:46:58.119Z,6.61
2023-01-09T04:49:25.296Z,6.71
2023-01-09T04:51:52.389Z,6.71
2023-01-09T04:54:18.963Z,6.73
2023-01-09T04:56:45.667Z,6.81
2023-01-09T04:59:12.879Z,6.83
2023-01-09T05:01:39.715Z,6.88
2023-01-09T05:04:06.749Z,6.91
2023-01-09T05:06:33.950Z,6.87
2023-01-09T05:09:02.983Z,6.87
2023-01-09T05:11:29.523Z,6.84
2023-01-09T05:13:56.078Z,6.82
2023-01-09T05:16:23.279Z,6.80
2023-01-09T05:18:50.986Z,6.88
2023-01-09T05:21:17.435Z,6.92
2023-01-09T05:23:43.855Z,6.87
2023-01-09T05:26:10.307Z,6.90
2023-01-09T05:28:36.815Z,6.85
2023-01-09T05:31:03.290Z,6.88
2023-01-09T05:33:30.372Z,6.82
2023-01-09T05:35:56.820Z,6.84
2023-01-09T05:38:23.286Z,6.83
2023-01-09T05:40:49.677Z,6.73
2023-01-09T05:43:16.074Z,6.71
2023-01-09T05:45:43.258Z,6.67
2023-01-09T05:48:09.709Z,6.69
2023-01-09T05:50:36.732Z,6.59
2023-01-09T05:53:03.229Z,6.58
2023-01-09T05:55:29.652Z,6.63
2023-01-09T05:57:56.082Z,6.55
2023-01-09T06:00:25.743Z,6.52
2023-01-09T06:02:52.207Z,6.48
2023-01-09T06:05:18.696Z,6.56
2023-01-09T06:07:45.791Z,6.50
2023-01-09T06:10:13.947Z,6.45
2023-01-09T06:12:41.624Z,6.42
2023-01-09T06:15:09.232Z,6.43
2023-01-09T06:17:35.658Z,6.38
2023-01-09T06:20:02.150Z,6.46
2023-01-09T06:22:28.597Z,6.45
2023-01-09T06:24:55.622Z,6.45
2023-01-09T06:27:22.017Z,6.43
2023-01-09T06:29:48.366Z,6.36
2023-01-09T06:32:14.966Z,6.32
2023-01-09T06:34:41.364Z,6.28
2023-01-09T06:37:07.782Z,6.27
2023-01-09T06:39:34.391Z,6.29
2023-01-09T06:42:01.515Z,6.56
2023-01-09T06:44:27.916Z,6.70
2023-01-09T06:46:54.402Z,6.57
2023-01-09T06:49:22.829Z,6.28
2023-01-09T06:51:49.611Z,6.14
2023-01-09T06:54:16.062Z,6.11
2023-01-09T06:56:42.615Z,6.09
2023-01-09T06:59:09.954Z,6.04
2023-01-09T07:01:38.873Z,5.99
2023-01-09T07:04:05.488Z,6.00
2023-01-09T07:06:32.336Z,5.91
2023-01-09T07:08:58.746Z,5.98
2023-01-09T07:11:25.190Z,5.93
2023-01-09T07:13:51.574Z,5.96
2023-01-09T07:16:18.645Z,5.94
2023-01-09T07:18:45.049Z,5.93
2023-01-09T07:21:11.432Z,5.91
2023-01-09T07:23:37.947Z,5.97
2023-01-09T07:26:04.832Z,5.92
2023-01-09T07:28:31.253Z,5.89
2023-01-09T07:31:01.696Z,6.00
2023-01-09T07:33:28.763Z,5.96
2023-01-09T07:35:55.431Z,5.92
2023-01-09T07:38:21.845Z,5.97
2023-01-09T07:40:48.263Z,6.03
2023-01-09T07:43:14.751Z,5.99
2023-01-09T07:45:41.147Z,5.93
2023-01-09T07:48:07.552Z,5.89
2023-01-09T07:50:34.618Z,5.81
2023-01-09T07:53:01.028Z,5.85
2023-01-09T07:55:27.431Z,5.76
2023-01-09T07:57:53.800Z,5.81
2023-01-09T08:00:20.732Z,5.74
2023-01-09T08:02:51.418Z,5.95
2023-01-09T08:05:18.292Z,5.98
2023-01-09T08:07:45.366Z,5.85
2023-01-09T08:10:12.153Z,5.86
2023-01-09T08:12:42.570Z,5.81
2023-01-09T08:15:09.794Z,6.06
2023-01-09T08:17:36.416Z,5.83
2023-01-09T08:20:02.919Z,5.90
2023-01-09T08:22:29.344Z,5.97
2023-01-09T08:24:56.372Z,5.90
2023-01-09T08:27:22.789Z,5.95
2023-01-09T08:29:49.221Z,5.92
2023-01-09T08:32:15.671Z,5.78
2023-01-09T08:34:42.120Z,5.78
2023-01-09T08:37:08.539Z,5.72
2023-01-09T08:39:36.309Z,5.80
2023-01-09T08:42:21.806Z,5.82
2023-01-09T08:45:20.764Z,5.70
2023-01-09T08:47:47.267Z,5.80
2023-01-09T08:50:14.373Z,5.80
2023-01-09T08:52:40.774Z,5.66
2023-01-09T08:55:07.881Z,5.53
2023-01-09T08:57:35.007Z,5.35
2023-01-09T09:00:01.798Z,5.34
2023-01-09T09:02:28.276Z,5.37
2023-01-09T09:04:55.589Z,5.40
2023-01-09T09:07:25.934Z,5.37
2023-01-09T09:09:52.844Z,5.45
2023-01-09T09:12:19.398Z,5.37
2023-01-09T09:15:04.552Z,5.44
2023-01-09T09:17:32.713Z,5.55
2023-01-09T09:19:59.580Z,5.47
2023-01-09T09:22:26.462Z,5.52
2023-01-09T09:24:53.132Z,5.50
2023-01-09T09:27:19.811Z,5.47
2023-01-09T09:29:46.851Z,5.44
2023-01-09T09:32:13.331Z,5.37
2023-01-09T09:34:40.789Z,5.41
2023-01-09T09:37:07.730Z,5.36
2023-01-09T09:39:34.274Z,5.38
2023-01-09T09:42:33.313Z,5.44
2023-01-09T09:45:11.930Z,5.44
2023-01-09T09:47:53.161Z,5.52
2023-01-09T09:50:35.389Z,5.57
2023-01-09T09:53:09.916Z,5.55
2023-01-09T09:55:39.260Z,5.54
2023-01-09T09:58:15.767Z,5.58
2023-01-09T10:00:43.057Z,5.55
2023-01-09T10:03:33.991Z,5.53
2023-01-09T10:06:05.036Z,5.58
2023-01-09T10:08:39.433Z,5.71
2023-01-09T10:11:12.846Z,5.82
2023-01-09T10:13:57.645Z,5.89
2023-01-09T10:16:39.675Z,5.93
2023-01-09T10:19:21.908Z,5.93
2023-01-09T10:21:56.831Z,5.95
2023-01-09T10:24:37.184Z,5.94
2023-01-09T10:27:15.974Z,5.97
2023-01-09T10:29:55.313Z,6.01
2023-01-09T10:32:38.458Z,6.02
2023-01-09T10:35:36.135Z,6.01
2023-01-09T10:38:13.217Z,6.17
2023-01-09T10:40:44.834Z,6.14
2023-01-09T10:43:18.766Z,6.29
2023-01-09T10:45:51.793Z,6.30
2023-01-09T10:48:26.046Z,6.12
2023-01-09T10:50:55.225Z,6.19
2023-01-09T10:53:25.110Z,6.23
2023-01-09T10:55:54.730Z,6.31
2023-01-09T10:58:22.160Z,6.21
2023-01-09T11:00:50.203Z,6.18
2023-01-09T11:03:18.649Z,6.20
2023-01-09T11:05:50.121Z,6.14
2023-01-09T11:08:23.974Z,6.09
2023-01-09T11:10:52.712Z,6.22
2023-01-09T11:13:22.166Z,6.16
2023-01-09T11:16:00.181Z,6.21
2023-01-09T11:18:27.409Z,6.19
2023-01-09T11:20:54.506Z,6.34
2023-01-09T11:23:30.441Z,6.28
2023-01-09T11:25:59.241Z,6.34
2023-01-09T11:28:26.127Z,6.50
2023-01-09T11:30:55.801Z,6.54
2023-01-09T11:33:24.813Z,6.50
2023-01-09T11:36:01.182Z,6.53
2023-01-09T11:38:29.123Z,6.49
2023-01-09T11:40:58.324Z,6.34
2023-01-09T11:43:32.059Z,6.54
2023-01-09T11:46:02.146Z,6.58
2023-01-09T11:48:35.283Z,6.44
2023-01-09T11:51:05.054Z,6.50
2023-01-09T11:53:48.715Z,6.45
2023-01-09T11:56:17.182Z,6.57
2023-01-09T11:58:44.654Z,6.67
2023-01-09T12:01:25.672Z,6.73
2023-01-09T12:04:19.573Z,6.72
2023-01-09T12:07:08.866Z,6.75
2023-01-09T12:09:43.290Z,6.86
2023-01-09T12:12:20.883Z,6.74
2023-01-09T12:15:00.130Z,6.75
2023-01-09T12:17:56.188Z,6.78
2023-01-09T12:20:53.582Z,6.75
2023-01-09T12:23:33.293Z,6.86
2023-01-09T12:26:12.726Z,7.01
2023-01-09T12:29:04.384Z,6.86
2023-01-09T12:31:45.027Z,6.85
2023-01-09T12:34:28.991Z,6.82
2023-01-09T12:37:05.875Z,6.93
2023-01-09T12:39:45.502Z,6.90
2023-01-09T12:42:27.976Z,6.90
2023-01-09T12:44:59.035Z,6.92
2023-01-09T12:47:45.603Z,6.88
2023-01-09T12:50:31.493Z,6.89
2023-01-09T12:53:08.969Z,6.92
2023-01-09T12:55:40.579Z,6.98
2023-01-09T12:58:16.574Z,7.02
2023-01-09T13:00:48.879Z,6.94
2023-01-09T13:03:23.484Z,6.91
2023-01-09T13:05:52.448Z,6.93
2023-01-09T13:08:24.490Z,7.00
2023-01-09T13:10:56.190Z,6.91
2023-01-09T13:13:28.697Z,6.91
2023-01-09T13:15:58.182Z,6.91
2023-01-09T13:18:33.041Z,6.88
2023-01-09T13:21:02.802Z,6.87
2023-01-09T13:23:42.108Z,6.82
2023-01-09T13:26:13.975Z,6.82
2023-01-09T13:28:46.888Z,6.81
2023-01-09T13:31:42.948Z,6.74
2023-01-09T13:34:22.025Z,6.70
2023-01-09T13:36:52.098Z,6.73
2023-01-09T13:39:24.862Z,6.68
2023-01-09T13:42:13.344Z,6.72
2023-01-09T13:44:40.226Z,6.71
2023-01-09T13:47:17.243Z,6.60
2023-01-09T13:50:05.047Z,6.61
2023-01-09T13:52:36.504Z,6.61
2023-01-09T13:55:35.065Z,6.65
2023-01-09T13:58:24.691Z,6.62
2023-01-09T14:01:09.903Z,6.63
2023-01-09T14:03:38.134Z,6.61
2023-01-09T14:06:23.582Z,6.60
2023-01-09T14:09:11.445Z,6.58
2023-01-09T14:11:38.486Z,6.56
2023-01-09T14:14:21.285Z,6.54
2023-01-09T14:16:47.936Z,6.53
2023-01-09T14:19:35.717Z,6.48
2023-01-09T14:22:03.379Z,6.53
2023-01-09T14:24:33.414Z,6.54
2023-01-09T14:27:01.419Z,6.62
2023-01-09T14:29:45.173Z,6.54
2023-01-09T14:32:38.229Z,6.60
2023-01-09T14:35:14.771Z,6.50
2023-01-09T14:37:59.337Z,6.58
2023-01-09T14:40:25.843Z,6.55
2023-01-09T14:42:54.983Z,6.49
2023-01-09T14:45:25.400Z,6.54
2023-01-09T14:47:56.416Z,6.53
2023-01-09T14:50:30.346Z,6.55
2023-01-09T14:53:03.219Z,6.51
2023-01-09T14:55:34.084Z,6.51
2023-01-09T14:58:10.653Z,6.48
2023-01-09T15:00:47.480Z,6.50
2023-01-09T15:03:14.569Z,6.54
2023-01-09T15:05:44.907Z,6.53
2023-01-09T15:08:16.133Z,6.47
2023-01-09T15:10:45.080Z,6.50
2023-01-09T15:13:17.799Z,6.46
2023-01-09T15:15:47.254Z,6.46
2023-01-09T15:18:20.828Z,6.44
2023-01-09T15:20:52.742Z,6.36
2023-01-09T15:23:24.483Z,6.46
2023-01-09T15:25:51.387Z,6.42
2023-01-09T15:28:31.276Z,6.43
2023-01-09T15:31:05.566Z,6.41
2023-01-09T15:33:33.348Z,6.35
2023-01-09T15:36:02.724Z,6.37
2023-01-09T15:38:32.237Z,6.33
2023-01-09T15:41:00.833Z,6.27
2023-01-09T15:43:29.725Z,6.24
2023-01-09T15:45:58.127Z,6.23
2023-01-09T15:48:28.642Z,6.19
2023-01-09T15:50:59.006Z,6.14
2023-01-09T15:53:37.207Z,6.07
2023-01-09T15:56:19.559Z,6.03
2023-01-09T15:58:50.185Z,5.93
2023-01-09T16:01:27.216Z,5.87
2023-01-09T16:03:57.925Z,5.83
2023-01-09T16:06:27.929Z,5.75
2023-01-09T16:08:57.121Z,5.76
2023-01-09T16:11:25.983Z,5.73
2023-01-09T16:13:57.299Z,5.69
2023-01-09T16:16:29.644Z,5.58
2023-01-09T16:18:58.345Z,5.61
2023-01-09T16:21:35.847Z,5.58
2023-01-09T16:24:21.075Z,5.61
2023-01-09T16:26:47.497Z,5.60
2023-01-09T16:29:27.970Z,5.55
2023-01-09T16:32:02.042Z,5.52
2023-01-09T16:34:29.741Z,5.53
2023-01-09T16:36:57.102Z,5.42
2023-01-09T16:39:24.800Z,5.46
2023-01-09T16:42:09.554Z,5.44
2023-01-09T16:44:40.382Z,5.39
2023-01-09T16:47:18.007Z,5.40
2023-01-09T16:49:45.442Z,5.38
2023-01-09T16:52:16.759Z,5.36
2023-01-09T16:54:46.134Z,5.37
2023-01-09T16:57:16.728Z,5.32
2023-01-09T16:59:43.330Z,5.35
2023-01-09T17:02:16.557Z,5.27
2023-01-09T17:04:42.966Z,5.30
2023-01-09T17:07:15.060Z,5.28
2023-01-09T17:09:41.512Z,5.30
2023-01-09T17:12:15.142Z,5.29
2023-01-09T17:14:42.757Z,5.19
2023-01-09T17:17:10.543Z,5.21
2023-01-09T17:19:37.159Z,5.12
2023-01-09T17:22:03.838Z,5.14
2023-01-09T17:24:49.704Z,5.15
2023-01-09T17:27:42.361Z,5.10
2023-01-09T17:30:18.370Z,5.08
2023-01-09T17:32:46.435Z,5.03
2023-01-09T17:35:14.633Z,5.06
2023-01-09T17:37:41.867Z,4.97
2023-01-09T17:40:17.690Z,5.07
2023-01-09T17:42:44.154Z,4.99
2023-01-09T17:45:11.530Z,4.91
2023-01-09T17:47:38.376Z,4.82
2023-01-09T17:50:06.025Z,4.80
2023-01-09T17:52:32.602Z,4.73
2023-01-09T17:55:04.272Z,4.71
2023-01-09T17:57:31.510Z,4.65
2023-01-09T17:59:58.319Z,4.63
2023-01-09T18:02:24.832Z,4.68
2023-01-09T18:04:51.240Z,4.65
2023-01-09T18:07:18.232Z,4.63
2023-01-09T18:09:44.850Z,4.66
2023-01-09T18:12:11.644Z,4.67
2023-01-09T18:14:39.963Z,4.72
2023-01-09T18:17:06.709Z,4.74
2023-01-09T18:19:33.728Z,4.74
2023-01-09T18:22:00.132Z,4.71
2023-01-09T18:24:26.568Z,4.70
2023-01-09T18:26:53.615Z,4.65
2023-01-09T18:29:20.580Z,4.57
2023-01-09T18:31:47.776Z,4.45
2023-01-09T18:34:14.169Z,4.45
2023-01-09T18:36:40.689Z,4.37
2023-01-09T18:39:08.026Z,4.35
2023-01-09T18:41:34.473Z,4.34
2023-01-09T18:44:01.402Z,4.35
2023-01-09T18:46:31.130Z,4.30
2023-01-09T18:48:59.778Z,4.22
2023-01-09T18:51:27.495Z,4.20
2023-01-09T18:53:54.677Z,4.18
2023-01-09T18:56:21.637Z,4.16
2023-01-09T18:58:48.353Z,4.11
2023-01-09T19:01:15.917Z,4.06
2023-01-09T19:03:42.479Z,4.06
2023-01-09T19:06:10.211Z,4.09
2023-01-09T19:08:36.673Z,4.04
2023-01-09T19:11:03.703Z,4.07
2023-01-09T19:13:31.932Z,4.03
2023-01-09T19:15:59.524Z,4.01
2023-01-09T19:18:27.240Z,3.99
2023-01-09T19:20:54.512Z,3.96
2023-01-09T19:23:23.824Z,3.93
2023-01-09T19:25:51.457Z,3.93
2023-01-09T19:28:17.978Z,3.88
2023-01-09T19:30:44.420Z,3.89
2023-01-09T19:33:11.835Z,3.80
2023-01-09T19:35:39.227Z,3.74
2023-01-09T19:38:06.029Z,3.76
2023-01-09T19:40:33.231Z,3.78
2023-01-09T19:42:59.629Z,3.78
2023-01-09T19:45:26.110Z,3.80
2023-01-09T19:47:52.491Z,3.78
2023-01-09T19:50:19.076Z,3.82
2023-01-09T19:52:45.766Z,3.78
2023-01-09T19:55:13.549Z,3.87
2023-01-09T19:57:40.628Z,3.82
2023-01-09T20:00:08.833Z,3.78
2023-01-09T20:02:38.915Z,3.71
2023-01-09T20:05:06.398Z,3.67
2023-01-09T20:07:34.048Z,3.60
2023-01-09T20:10:00.607Z,3.60
2023-01-09T20:12:27.253Z,3.56
2023-01-09T20:14:54.325Z,3.55
2023-01-09T20:17:20.738Z,3.58
2023-01-09T20:19:47.161Z,3.54
2023-01-09T20:22:13.597Z,3.50
2023-01-09T20:24:40.067Z,3.49
2023-01-09T20:27:06.544Z,3.52
2023-01-09T20:29:33.675Z,3.56
2023-01-09T20:32:04.725Z,3.56
2023-01-09T20:34:31.237Z,3.53
2023-01-09T20:36:57.681Z,3.54
2023-01-09T20:39:24.237Z,3.50
2023-01-09T20:41:50.647Z,3.51
2023-01-09T20:44:17.053Z,3.54
2023-01-09T20:46:47.090Z,3.59
2023-01-09T20:49:16.180Z,3.59
2023-01-09T20:51:45.257Z,3.67
2023-01-09T20:54:11.732Z,3.68
2023-01-09T20:56:38.102Z,3.66
2023-01-09T20:59:05.678Z,3.73
2023-01-09T21:01:32.365Z,3.73
2023-01-09T21:03:58.858Z,3.72
2023-01-09T21:06:27.260Z,3.67
2023-01-09T21:08:53.911Z,3.62
2023-01-09T21:11:20.894Z,3.63
2023-01-09T21:13:47.741Z,3.60
2023-01-09T21:16:16.882Z,3.56
2023-01-09T21:18:43.867Z,3.50
2023-01-09T21:21:12.575Z,3.45
2023-01-09T21:23:44.003Z,3.28
2023-01-09T21:26:12.854Z,3.32
2023-01-09T21:28:45.467Z,3.37
2023-01-09T21:31:12.005Z,3.36
2023-01-09T21:33:38.523Z,3.39
2023-01-09T21:36:06.138Z,3.37
2023-01-09T21:38:32.688Z,3.39
2023-01-09T21:41:19.878Z,3.36
2023-01-09T21:44:04.438Z,3.32
2023-01-09T21:46:49.079Z,3.33
2023-01-09T21:49:17.505Z,3.29
2023-01-09T21:51:44.166Z,3.26
2023-01-09T21:54:10.918Z,3.25
2023-01-09T21:56:37.971Z,3.15
2023-01-09T21:59:04.530Z,3.15
2023-01-09T22:01:30.929Z,3.16
2023-01-09T22:03:57.553Z,3.19
2023-01-09T22:06:24.009Z,3.15
2023-01-09T22:08:50.675Z,3.18
2023-01-09T22:11:17.035Z,3.15
2023-01-09T22:13:47.501Z,3.14
2023-01-09T22:16:13.993Z,3.10
2023-01-09T22:18:40.514Z,3.17
2023-01-09T22:21:07.024Z,3.20
2023-01-09T22:23:34.602Z,3.18
2023-01-09T22:26:06.977Z,3.33
2023-01-09T22:28:33.390Z,3.28
2023-01-09T22:31:00.459Z,3.30
2023-01-09T22:33:26.904Z,3.33
2023-01-09T22:35:53.281Z,3.30
2023-01-09T22:38:20.065Z,3.42
2023-01-09T22:40:46.509Z,3.41
2023-01-09T22:43:15.413Z,3.33
2023-01-09T22:45:41.926Z,3.43
2023-01-09T22:48:09.213Z,3.38
2023-01-09T22:50:36.085Z,3.30
2023-01-09T22:53:02.563Z,3.34
2023-01-09T22:55:28.979Z,3.39
2023-01-09T22:57:55.413Z,3.40
2023-01-09T23:00:25.504Z,3.39
2023-01-09T23:02:52.070Z,3.43
2023-01-09T23:05:19.290Z,3.39
2023-01-09T23:07:45.733Z,3.45
2023-01-09T23:10:12.184Z,3.50
2023-01-09T23:12:38.586Z,3.49
2023-01-09T23:15:06.276Z,3.47
2023-01-09T23:17:32.678Z,3.46
2023-01-09T23:19:59.089Z,3.54
2023-01-09T23:22:26.196Z,3.53
2023-01-09T23:24:52.611Z,3.48
2023-01-09T23:27:18.977Z,3.40
2023-01-09T23:29:45.679Z,3.40
2023-01-09T23:32:13.250Z,3.43
2023-01-09T23:34:40.849Z,3.40
2023-01-09T23:37:08.926Z,3.38
2023-01-09T23:39:36.133Z,3.40
2023-01-09T23:42:20.545Z,3.36
2023-01-09T23:44:46.998Z,3.37
2023-01-09T23:47:13.392Z,3.26
2023-01-09T23:49:39.829Z,3.27
2023-01-09T23:52:07.869Z,3.35
2023-01-09T23:54:34.852Z,3.21
2023-01-09T23:57:01.882Z,3.12
2023-01-09T23:59:28.356Z,3.05
